Time;durP1;ratioP1;P1;durP2;ratioP2;P2;SDS_P1;SDS_P2;PMS_P1;PMS_P2;Temp;Humidity;BMP_temperature;BMP_pressure;BME280_temperature;BME280_humidity;BME280_pressure;Samples;Min_cycle;Max_cycle;Signal;HPM_P1;HPM_P2
2024/04/14 00:04:00;;;;;;;16.6;13.5;;;;;;;13.22;78.85;99106.666666667;;;;
2024/04/14 00:15:00;;;;;;;16.6;13.5;;;;;;;13.79;76.56;99101.666666667;;;;
2024/04/14 00:25:00;;;;;;;8.9;5.5;;;;;;;14.08;74.88;99086.666666667;;;;
2024/04/14 00:36:00;;;;;;;8.9;5.5;;;;;;;13.65;74.8;99071.666666667;;;;
2024/04/14 00:46:00;;;;;;;8.9;5.5;;;;;;;13.18;75.55;99055;;;;
2024/04/14 00:56:00;;;;;;;15.3;9.8;;;;;;;12.81;77.07;99043.333333333;;;;
2024/04/14 01:06:00;;;;;;;15.3;9.8;;;;;;;12.4;78.56;99028.333333333;;;;
2024/04/14 01:17:00;;;;;;;15.3;9.8;;;;;;;12.16;79;99006.666666667;;;;
2024/04/14 01:28:00;;;;;;;17.2;13.6;;;;;;;11.92;79.34;99000;;;;
2024/04/14 01:39:00;;;;;;;17.2;13.6;;;;;;;11.74;80.9;99001.666666667;;;;
2024/04/14 01:49:00;;;;;;;17.2;13.6;;;;;;;11.59;80.98;98996.666666667;;;;
2024/04/14 02:00:00;;;;;;;15.6;10.6;;;;;;;11.47;80.94;98996.666666667;;;;
2024/04/14 02:10:02;;;;;;;15.6;10.6;;;;;;;11.34;81.1;98993.333333333;;;;
2024/04/14 02:21:00;;;;;;;15.6;10.6;;;;;;;11.18;81.03;98983.333333333;;;;
2024/04/14 02:32:00;;;;;;;14.6;7.3;;;;;;;11.05;81.65;98966.666666667;;;;
2024/04/14 02:42:00;;;;;;;14.6;7.3;;;;;;;11.13;82.15;98953.333333333;;;;
2024/04/14 02:52:00;;;;;;;14.6;7.3;;;;;;;11.26;82.3;98941.666666667;;;;
2024/04/14 03:02:00;;;;;;;7.9;4.9;;;;;;;11.36;82.27;98940;;;;
2024/04/14 03:13:00;;;;;;;7.9;4.9;;;;;;;11.41;82.23;98928.333333333;;;;
2024/04/14 03:23:00;;;;;;;7.9;4.9;;;;;;;11.4;81.75;98925;;;;
2024/04/14 03:33:00;;;;;;;5.9;3.8;;;;;;;11.28;82.35;98910;;;;
2024/04/14 03:44:00;;;;;;;5.9;3.8;;;;;;;11.15;81.97;98895;;;;
2024/04/14 03:55:00;;;;;;;8.9;4.2;;;;;;;11.05;82.02;98895;;;;
2024/04/14 04:05:00;;;;;;;8.9;4.2;;;;;;;11.09;82.68;98885;;;;
2024/04/14 04:16:00;;;;;;;8.9;4.2;;;;;;;11.34;83.42;98876.666666667;;;;
2024/04/14 04:26:00;;;;;;;8;3.5;;;;;;;11.61;83.65;98861.666666667;;;;
2024/04/14 04:36:00;;;;;;;8;3.5;;;;;;;12.34;82.69;98848.333333333;;;;
2024/04/14 04:46:00;;;;;;;8;3.5;;;;;;;12.94;80.74;98833.333333333;;;;
2024/04/14 04:57:00;;;;;;;7.1;3.5;;;;;;;13.03;78.92;98823.333333333;;;;
2024/04/14 05:07:00;;;;;;;7.1;3.5;;;;;;;13.63;78.88;98815;;;;
2024/04/14 05:18:00;;;;;;;7.1;3.5;;;;;;;14.56;75.27;98803.333333333;;;;
2024/04/14 05:29:00;;;;;;;7.6;4.7;;;;;;;15.29;73.54;98788.333333333;;;;
2024/04/14 05:39:00;;;;;;;7.6;4.7;;;;;;;15.97;71.38;98780;;;;
2024/04/14 05:50:00;;;;;;;7.6;4.7;;;;;;;16.62;68.51;98780;;;;
2024/04/14 06:00:00;;;;;;;8;4.7;;;;;;;16.78;68.86;98773.333333333;;;;
2024/04/14 06:11:00;;;;;;;8;4.7;;;;;;;16.57;69.09;98770;;;;
2024/04/14 06:22:00;;;;;;;8;4.7;;;;;;;16.41;69.53;98765;;;;
2024/04/14 06:32:00;;;;;;;15.1;10.7;;;;;;;16.6;70.14;98780;;;;
2024/04/14 06:43:00;;;;;;;15.1;10.7;;;;;;;17.23;70.11;98761.666666667;;;;
2024/04/14 06:53:00;;;;;;;15.1;10.7;;;;;;;17.79;68.63;98768.333333333;;;;
2024/04/14 07:04:00;;;;;;;16.1;11.9;;;;;;;18.44;66.69;98768.333333333;;;;
2024/04/14 07:15:00;;;;;;;16.1;11.9;;;;;;;19.14;65.3;98771.666666667;;;;
2024/04/14 07:25:00;;;;;;;11.3;8;;;;;;;19.66;64.1;98763.333333333;;;;
2024/04/14 07:36:00;;;;;;;11.3;8;;;;;;;20.05;62.18;98770;;;;
2024/04/14 07:46:00;;;;;;;11.3;8;;;;;;;20.37;60.37;98771.666666667;;;;
2024/04/14 07:57:01;;;;;;;13.1;7;;;;;;;20.09;60.79;98760;;;;
2024/04/14 08:08:00;;;;;;;13.1;7;;;;;;;20.17;61.91;98763.333333333;;;;
2024/04/14 08:19:00;;;;;;;13.1;7;;;;;;;20.66;61.68;98755;;;;
2024/04/14 08:29:00;;;;;;;9;6;;;;;;;20.89;59.9;98760;;;;
2024/04/14 08:40:00;;;;;;;9;6;;;;;;;21.44;58.78;98760;;;;
2024/04/14 08:50:00;;;;;;;9;6;;;;;;;21.84;56.19;98748.333333333;;;;
2024/04/14 09:01:00;;;;;;;9.2;5.8;;;;;;;22.44;51.68;98731.666666667;;;;
2024/04/14 09:12:00;;;;;;;9.2;5.8;;;;;;;22.74;47.59;98726.666666667;;;;
2024/04/14 09:23:00;;;;;;;9.2;5.8;;;;;;;22.9;47.35;98713.333333333;;;;
2024/04/14 09:33:00;;;;;;;8.3;2.7;;;;;;;23.2;45.72;98708.333333333;;;;
2024/04/14 09:43:00;;;;;;;8.3;2.7;;;;;;;23.12;46.33;98715;;;;
2024/04/14 09:54:00;;;;;;;8.2;2.7;;;;;;;23.27;46.9;98706.666666667;;;;
2024/04/14 10:05:01;;;;;;;8.2;2.7;;;;;;;23.4;46.77;98696.666666667;;;;
2024/04/14 10:16:00;;;;;;;8.2;2.7;;;;;;;23.66;45.86;98695;;;;
2024/04/14 10:26:00;;;;;;;7.8;2.7;;;;;;;23.46;45.48;98695;;;;
2024/04/14 10:36:01;;;;;;;7.8;2.7;;;;;;;23.86;46.72;98695;;;;
2024/04/14 10:47:00;;;;;;;7.8;2.7;;;;;;;23.94;45.99;98685;;;;
2024/04/14 10:58:00;;;;;;;5.4;2.3;;;;;;;24.23;46.54;98681.666666667;;;;
2024/04/14 11:09:00;;;;;;;5.4;2.3;;;;;;;24.65;45.54;98680;;;;
2024/04/14 11:19:00;;;;;;;5.4;2.3;;;;;;;24.52;46.3;98680;;;;
2024/04/14 11:30:00;;;;;;;7.8;2.3;;;;;;;24.13;45.51;98676.666666667;;;;
2024/04/14 11:41:00;;;;;;;7.8;2.3;;;;;;;23.95;46.39;98671.666666667;;;;
2024/04/14 11:52:00;;;;;;;7.8;2.3;;;;;;;24.18;45.96;98665;;;;
2024/04/14 12:03:00;;;;;;;10.8;2.6;;;;;;;23.95;48.1;98670;;;;
2024/04/14 12:13:00;;;;;;;10.8;2.6;;;;;;;24.16;45.45;98675;;;;
2024/04/14 12:23:00;;;;;;;10.8;2.6;;;;;;;24.39;47.49;98676.666666667;;;;
2024/04/14 12:33:03;;;;;;;5.2;3;;;;;;;23.84;46.47;98670;;;;
2024/04/14 12:44:00;;;;;;;5.2;3;;;;;;;23.68;47.11;98665;;;;
2024/04/14 12:54:00;;;;;;;5;2.5;;;;;;;23.93;48.93;98663.333333333;;;;
2024/04/14 13:05:00;;;;;;;5;2.5;;;;;;;23.58;48.35;98643.333333333;;;;
2024/04/14 13:15:00;;;;;;;5;2.5;;;;;;;23.41;48.96;98635;;;;
2024/04/14 13:26:00;;;;;;;6.8;3.1;;;;;;;23.04;49.72;98631.666666667;;;;
2024/04/14 13:36:00;;;;;;;6.8;3.1;;;;;;;23.48;50.24;98626.666666667;;;;
2024/04/14 13:47:00;;;;;;;6.8;3.1;;;;;;;23.23;48.92;98613.333333333;;;;
2024/04/14 13:58:00;;;;;;;5.8;2.9;;;;;;;22.94;50.46;98606.666666667;;;;
2024/04/14 14:08:01;;;;;;;5.8;2.9;;;;;;;22.8;50.78;98578.333333333;;;;
2024/04/14 14:18:00;;;;;;;5.8;2.9;;;;;;;22.89;50.11;98556.666666667;;;;
2024/04/14 14:29:00;;;;;;;4.5;2.3;;;;;;;22.97;49.35;98550;;;;
2024/04/14 14:39:00;;;;;;;4.5;2.3;;;;;;;23.11;49.49;98555;;;;
2024/04/14 14:50:00;;;;;;;4.5;2.3;;;;;;;23.28;49.52;98543.333333333;;;;
2024/04/14 15:00:01;;;;;;;7.4;3.2;;;;;;;23.14;48.85;98536.666666667;;;;
2024/04/14 15:11:01;;;;;;;7.4;3.2;;;;;;;23.05;48.51;98536.666666667;;;;
2024/04/14 15:21:00;;;;;;;7.4;3.2;;;;;;;22.95;47.93;98536.666666667;;;;
2024/04/14 15:32:00;;;;;;;5.1;2.3;;;;;;;22.58;48.53;98546.666666667;;;;
2024/04/14 15:43:00;;;;;;;5.1;2.3;;;;;;;22.32;49.26;98550;;;;
2024/04/14 15:53:00;;;;;;;5.1;2.3;;;;;;;22.13;50.36;98538.333333333;;;;
2024/04/14 16:03:00;;;;;;;11.2;2.7;;;;;;;21.76;53.51;98558.333333333;;;;
2024/04/14 16:13:00;;;;;;;11.2;2.7;;;;;;;20.25;68.75;98591.666666667;;;;
2024/04/14 16:24:03;;;;;;;11.2;2.7;;;;;;;19.12;73.37;98583.333333333;;;;
2024/04/14 16:35:00;;;;;;;8.1;3.5;;;;;;;18.74;74.74;98575;;;;
2024/04/14 16:45:00;;;;;;;8.1;3.5;;;;;;;18.59;76.31;98558.333333333;;;;
2024/04/14 16:56:00;;;;;;;9.2;4.2;;;;;;;18.63;75.76;98558.333333333;;;;
2024/04/14 17:07:00;;;;;;;9.2;4.2;;;;;;;18.35;77.74;98570;;;;
2024/04/14 17:18:00;;;;;;;9.2;4.2;;;;;;;18.12;76.63;98585;;;;
2024/04/14 17:29:01;;;;;;;8;4.7;;;;;;;17.99;76.56;98591.666666667;;;;
2024/04/14 17:39:00;;;;;;;8;4.7;;;;;;;17.69;76.75;98598.333333333;;;;
2024/04/14 17:50:01;;;;;;;8;4.7;;;;;;;17.48;76.88;98615;;;;
2024/04/14 18:00:00;;;;;;;8.9;6;;;;;;;17.16;77.31;98618.333333333;;;;
2024/04/14 18:10:00;;;;;;;8.9;6;;;;;;;16.76;78.41;98628.333333333;;;;
2024/04/14 18:20:00;;;;;;;8.9;6;;;;;;;16.39;78.77;98631.666666667;;;;
2024/04/14 18:31:01;;;;;;;12.9;9;;;;;;;16.03;79.39;98630;;;;
2024/04/14 18:41:00;;;;;;;12.9;9;;;;;;;15.77;80.91;98678.333333333;;;;
2024/04/14 18:52:00;;;;;;;12.9;9;;;;;;;15.84;81.64;98675;;;;
2024/04/14 19:02:00;;;;;;;12;7.5;;;;;;;15.7;81.21;98663.333333333;;;;
2024/04/14 19:12:00;;;;;;;12;7.5;;;;;;;15.4;81.32;98671.666666667;;;;
2024/04/14 19:23:00;;;;;;;12;7.5;;;;;;;15.21;81.17;98696.666666667;;;;
2024/04/14 19:34:02;;;;;;;11.1;6.1;;;;;;;15.38;78.6;98686.666666667;;;;
2024/04/14 19:45:00;;;;;;;11.1;6.1;;;;;;;15.35;78.19;98670;;;;
2024/04/14 19:56:00;;;;;;;8.2;5.3;;;;;;;15.25;78.58;98656.666666667;;;;
2024/04/14 20:06:00;;;;;;;8.2;5.3;;;;;;;15.27;79.2;98650;;;;
2024/04/14 20:16:00;;;;;;;8.2;5.3;;;;;;;15.32;79.16;98660;;;;
2024/04/14 20:26:00;;;;;;;9.3;6.3;;;;;;;15.47;79.79;98701.666666667;;;;
2024/04/14 20:37:00;;;;;;;9.3;6.3;;;;;;;15.59;79.47;98676.666666667;;;;
2024/04/14 20:48:00;;;;;;;9.3;6.3;;;;;;;15.59;79.34;98683.333333333;;;;
2024/04/14 20:59:00;;;;;;;13.9;7.5;;;;;;;15.55;78.15;98683.333333333;;;;
2024/04/14 21:09:00;;;;;;;13.9;7.5;;;;;;;15.39;77.55;98695;;;;
2024/04/14 21:19:00;;;;;;;13.9;7.5;;;;;;;15.16;79.11;98703.333333333;;;;
2024/04/14 21:30:00;;;;;;;10.6;7.1;;;;;;;14.96;80.95;98710;;;;
2024/04/14 21:41:00;;;;;;;10.6;7.1;;;;;;;14.69;82.32;98698.333333333;;;;
2024/04/14 21:52:00;;;;;;;10.6;7.1;;;;;;;14.72;81.67;98695;;;;
2024/04/14 22:02:00;;;;;;;11;7.3;;;;;;;14.83;81.19;98696.666666667;;;;
2024/04/14 22:12:00;;;;;;;11;7.3;;;;;;;14.77;82.62;98701.666666667;;;;
2024/04/14 22:23:00;;;;;;;11;7.3;;;;;;;14.73;83.24;98691.666666667;;;;
2024/04/14 22:34:02;;;;;;;9.2;7;;;;;;;14.75;81.06;98698.333333333;;;;
2024/04/14 22:44:00;;;;;;;9.2;7;;;;;;;14.81;79.97;98690;;;;
2024/04/14 22:54:00;;;;;;;9;5.5;;;;;;;14.77;79.85;98676.666666667;;;;
2024/04/14 23:05:00;;;;;;;9;5.5;;;;;;;14.66;80.07;98660;;;;
2024/04/14 23:16:00;;;;;;;9;5.5;;;;;;;14.64;78.43;98651.666666667;;;;
2024/04/14 23:26:00;;;;;;;10.4;5.7;;;;;;;14.45;78.4;98640;;;;
2024/04/14 23:37:00;;;;;;;10.4;5.7;;;;;;;14.41;78.38;98631.666666667;;;;
2024/04/14 23:47:00;;;;;;;10.4;5.7;;;;;;;14.27;77.88;98628.333333333;;;;
2024/04/14 23:57:00;;;;;;;8;4.9;;;;;;;14.16;76.74;98613.333333333;;;;
